Time;durP1;ratioP1;P1;durP2;ratioP2;P2;SDS_P1;SDS_P2;PMS_P1;PMS_P2;Temp;Humidity;BMP_temperature;BMP_pressure;BME280_temperature;BME280_humidity;BME280_pressure;Samples;Min_cycle;Max_cycle;Signal;HPM_P1;HPM_P2
2024/04/03 00:02:18;;;;;;;21.98;9.98;;;;;;;;;;5078876;28;20593;-72
2024/04/03 00:04:44;;;;;;;23.00;9.60;;;;;;;;;;5085563;28;20384;-72
2024/04/03 00:07:09;;;;;;;20.25;9.73;;;;;;;;;;5088953;28;20188;-73
2024/04/03 00:09:35;;;;;;;20.58;8.57;;;;;;;;;;5078328;28;20181;-72
2024/04/03 00:12:00;;;;;;;21.40;9.25;;;;;;;;;;5085026;28;20546;-72
2024/04/03 00:14:25;;;;;;;17.10;8.63;;;;;;;;;;5072813;28;20192;-72
2024/04/03 00:16:51;;;;;;;20.65;8.48;;;;;;;;;;5086749;28;20694;-72
2024/04/03 00:19:16;;;;;;;19.40;7.97;;;;;;;;;;5069686;28;20289;-72
2024/04/03 00:21:42;;;;;;;19.38;8.10;;;;;;;;;;5075468;28;20295;-72
2024/04/03 00:24:09;;;;;;;15.73;7.22;;;;;;;;;;5083007;28;20255;-72
2024/04/03 00:26:34;;;;;;;19.38;7.55;;;;;;;;;;5083974;28;20681;-72
2024/04/03 00:28:59;;;;;;;16.15;6.32;;;;;;;;;;5087752;28;20188;-72
2024/04/03 00:31:25;;;;;;;14.15;5.63;;;;;;;;;;5079336;28;20189;-72
2024/04/03 00:33:51;;;;;;;17.63;5.55;;;;;;;;;;5084269;28;20184;-72
2024/04/03 00:36:16;;;;;;;17.77;5.78;;;;;;;;;;5080473;28;20308;-73
2024/04/03 00:38:41;;;;;;;14.55;5.55;;;;;;;;;;5088518;28;20235;-73
2024/04/03 00:41:07;;;;;;;16.13;5.63;;;;;;;;;;5082978;28;20691;-74
2024/04/03 00:43:32;;;;;;;18.13;5.30;;;;;;;;;;5073913;28;20312;-73
2024/04/03 00:45:59;;;;;;;19.23;5.57;;;;;;;;;;5063036;28;20611;-72
2024/04/03 00:48:26;;;;;;;19.20;5.10;;;;;;;;;;5079149;28;20185;-73
2024/04/03 00:50:53;;;;;;;14.27;5.55;;;;;;;;;;5080641;28;20270;-74
2024/04/03 00:53:19;;;;;;;16.98;5.63;;;;;;;;;;5084969;28;20216;-73
2024/04/03 00:55:45;;;;;;;12.38;5.47;;;;;;;;;;5087138;28;20586;-73
2024/04/03 00:58:11;;;;;;;12.00;5.13;;;;;;;;;;5086979;28;20647;-73
2024/04/03 01:00:36;;;;;;;13.43;5.50;;;;;;;;;;5088730;28;20200;-73
2024/04/03 01:03:06;;;;;;;17.13;5.20;;;;;;;;;;5074317;28;20184;-74
2024/04/03 01:05:32;;;;;;;17.92;5.38;;;;;;;;;;5061364;28;20244;-76
2024/04/03 01:07:58;;;;;;;17.38;5.90;;;;;;;;;;5082490;28;20195;-76
2024/04/03 01:10:25;;;;;;;16.10;5.30;;;;;;;;;;5084848;28;20188;-77
2024/04/03 01:12:51;;;;;;;14.43;5.95;;;;;;;;;;5061087;28;20185;-78
2024/04/03 01:15:16;;;;;;;17.58;5.57;;;;;;;;;;5072916;28;20185;-78
2024/04/03 01:17:42;;;;;;;23.70;5.82;;;;;;;;;;5078449;28;20682;-78
2024/04/03 01:20:08;;;;;;;18.58;6.47;;;;;;;;;;5084722;28;20637;-78
2024/04/03 01:22:34;;;;;;;24.02;5.80;;;;;;;;;;5086790;28;20195;-78
2024/04/03 01:25:00;;;;;;;18.52;6.10;;;;;;;;;;5087676;28;20225;-78
2024/04/03 01:27:26;;;;;;;17.73;6.22;;;;;;;;;;5081238;28;20593;-78
2024/04/03 01:29:51;;;;;;;19.98;6.30;;;;;;;;;;5082012;28;20547;-78
2024/04/03 01:32:17;;;;;;;15.48;5.95;;;;;;;;;;5082668;28;20193;-78
2024/04/03 01:34:42;;;;;;;15.45;6.38;;;;;;;;;;5081679;28;20259;-78
2024/04/03 01:37:08;;;;;;;19.27;7.03;;;;;;;;;;5085320;28;20200;-78
2024/04/03 01:39:34;;;;;;;17.38;8.43;;;;;;;;;;5066135;28;20229;-78
2024/04/03 01:41:59;;;;;;;25.45;9.52;;;;;;;;;;5087573;28;20192;-78
2024/04/03 01:44:25;;;;;;;25.80;9.32;;;;;;;;;;5080309;28;20206;-77
2024/04/03 01:46:50;;;;;;;23.98;9.93;;;;;;;;;;5078472;28;20192;-77
2024/04/03 01:49:16;;;;;;;21.25;9.68;;;;;;;;;;5079297;28;20230;-77
2024/04/03 01:51:41;;;;;;;21.65;9.25;;;;;;;;;;5073767;28;20196;-77
2024/04/03 01:54:06;;;;;;;32.90;8.73;;;;;;;;;;5076098;28;20177;-77
2024/04/03 01:56:32;;;;;;;24.08;8.27;;;;;;;;;;5066334;28;20504;-77
2024/04/03 01:58:57;;;;;;;22.52;8.20;;;;;;;;;;5083599;28;20192;-77
2024/04/03 02:01:23;;;;;;;17.23;8.50;;;;;;;;;;5083191;28;20207;-77
2024/04/03 02:03:48;;;;;;;21.70;9.13;;;;;;;;;;5077926;28;20219;-78
2024/04/03 02:06:14;;;;;;;17.27;9.27;;;;;;;;;;5081507;28;20244;-77
2024/04/03 02:08:39;;;;;;;25.77;10.32;;;;;;;;;;5084515;28;20271;-77
2024/04/03 02:11:05;;;;;;;21.85;9.95;;;;;;;;;;5088438;28;20223;-78
2024/04/03 02:13:30;;;;;;;25.58;11.15;;;;;;;;;;5085234;28;20902;-77
2024/04/03 02:15:56;;;;;;;22.48;9.93;;;;;;;;;;5079940;28;20196;-78
2024/04/03 02:18:22;;;;;;;19.20;10.77;;;;;;;;;;5069486;28;20189;-77
2024/04/03 02:20:47;;;;;;;18.10;11.57;;;;;;;;;;5067551;28;20687;-76
2024/04/03 02:23:13;;;;;;;21.95;11.93;;;;;;;;;;5080868;28;20199;-76
2024/04/03 02:25:40;;;;;;;22.10;11.45;;;;;;;;;;5063915;28;20385;-76
2024/04/03 02:28:06;;;;;;;24.98;10.77;;;;;;;;;;5080513;28;20212;-76
2024/04/03 02:30:31;;;;;;;23.98;10.48;;;;;;;;;;5077675;28;20704;-76
2024/04/03 02:32:57;;;;;;;23.38;10.60;;;;;;;;;;5086595;28;20196;-76
2024/04/03 02:35:22;;;;;;;25.75;10.55;;;;;;;;;;5078731;28;20179;-76
2024/04/03 02:37:47;;;;;;;23.85;9.57;;;;;;;;;;5072315;28;20315;-76
2024/04/03 02:40:13;;;;;;;29.23;11.55;;;;;;;;;;5069508;28;20767;-76
2024/04/03 02:42:38;;;;;;;24.50;10.88;;;;;;;;;;5065947;28;20253;-76
2024/04/03 02:45:04;;;;;;;20.25;10.80;;;;;;;;;;5085500;28;20720;-75
2024/04/03 02:47:31;;;;;;;21.70;11.15;;;;;;;;;;5074322;28;20189;-76
2024/04/03 02:49:56;;;;;;;25.13;11.68;;;;;;;;;;5068842;28;20279;-76
2024/04/03 02:52:22;;;;;;;23.75;11.82;;;;;;;;;;5085050;28;20655;-76
2024/04/03 02:54:47;;;;;;;21.67;11.50;;;;;;;;;;5089910;28;20184;-76
2024/04/03 02:57:12;;;;;;;26.92;11.85;;;;;;;;;;5071739;28;20245;-76
2024/04/03 02:59:38;;;;;;;22.85;12.25;;;;;;;;;;5082349;28;20546;-76
2024/04/03 03:02:04;;;;;;;23.23;11.77;;;;;;;;;;5081668;28;20246;-76
2024/04/03 03:04:43;;;;;;;23.90;11.38;;;;;;;;;;5090546;28;20295;-76
2024/04/03 03:07:09;;;;;;;21.80;11.77;;;;;;;;;;5084609;28;20278;-76
2024/04/03 03:09:36;;;;;;;23.50;13.50;;;;;;;;;;5062758;28;20200;-75
2024/04/03 03:12:02;;;;;;;21.30;13.15;;;;;;;;;;5080518;28;20184;-75
2024/04/03 03:14:28;;;;;;;27.83;13.88;;;;;;;;;;5068157;28;20739;-76
2024/04/03 03:16:53;;;;;;;27.67;13.57;;;;;;;;;;5068229;28;20193;-75
2024/04/03 03:19:19;;;;;;;19.40;12.77;;;;;;;;;;5069966;28;20209;-75
2024/04/03 03:21:44;;;;;;;24.20;14.15;;;;;;;;;;5082777;28;20211;-75
2024/04/03 03:24:10;;;;;;;25.00;14.63;;;;;;;;;;5070448;28;20204;-75
2024/04/03 03:26:35;;;;;;;30.05;14.65;;;;;;;;;;5063095;28;20188;-75
2024/04/03 03:29:00;;;;;;;29.35;13.90;;;;;;;;;;5083775;28;20618;-75
2024/04/03 03:31:28;;;;;;;21.73;13.20;;;;;;;;;;5077719;28;20185;-76
2024/04/03 03:33:54;;;;;;;26.83;13.90;;;;;;;;;;5110337;27;20212;-76
2024/04/03 03:36:19;;;;;;;27.17;13.48;;;;;;;;;;5079194;28;20227;-75
2024/04/03 03:38:44;;;;;;;26.20;13.45;;;;;;;;;;5075691;28;20376;-75
2024/04/03 03:41:10;;;;;;;24.10;13.07;;;;;;;;;;5070973;28;20606;-75
2024/04/03 03:43:35;;;;;;;26.88;14.05;;;;;;;;;;5080223;28;20360;-74
2024/04/03 03:46:01;;;;;;;25.17;13.73;;;;;;;;;;5082171;28;20305;-76
2024/04/03 03:53:58;;;;;;;22.70;13.38;;;;;;;;;;5081876;28;20180;-74
2024/04/03 03:56:24;;;;;;;21.92;14.77;;;;;;;;;;5083539;28;20189;-74
2024/04/03 03:58:50;;;;;;;21.95;13.50;;;;;;;;;;5074145;28;20197;-75
2024/04/03 04:01:15;;;;;;;26.10;15.10;;;;;;;;;;5075120;28;20329;-75
2024/04/03 04:03:41;;;;;;;21.95;13.90;;;;;;;;;;5089800;28;20216;-76
2024/04/03 04:06:06;;;;;;;22.15;12.88;;;;;;;;;;5085063;28;20704;-75
2024/04/03 04:08:32;;;;;;;19.20;12.85;;;;;;;;;;5089791;28;20599;-75
2024/04/03 04:10:59;;;;;;;23.92;13.63;;;;;;;;;;5087658;28;20191;-75
2024/04/03 04:13:24;;;;;;;21.90;13.93;;;;;;;;;;5074519;28;20216;-75
2024/04/03 04:15:52;;;;;;;25.73;14.32;;;;;;;;;;5090351;28;20301;-75
2024/04/03 04:18:17;;;;;;;22.42;13.50;;;;;;;;;;5088886;28;20192;-76
2024/04/03 04:20:43;;;;;;;21.75;13.95;;;;;;;;;;5072106;28;20718;-77
2024/04/03 04:23:08;;;;;;;21.63;14.05;;;;;;;;;;5076776;28;20536;-76
2024/04/03 04:25:34;;;;;;;21.70;13.00;;;;;;;;;;5067133;28;20212;-76
2024/04/03 04:28:00;;;;;;;18.45;11.60;;;;;;;;;;5088885;28;20212;-76
2024/04/03 04:30:25;;;;;;;19.77;12.68;;;;;;;;;;5087436;28;20627;-76
2024/04/03 04:32:51;;;;;;;22.40;12.48;;;;;;;;;;5071697;28;20188;-76
2024/04/03 04:35:16;;;;;;;17.15;10.80;;;;;;;;;;5079263;28;20185;-74
2024/04/03 04:37:42;;;;;;;19.23;11.18;;;;;;;;;;5060487;28;20227;-74
2024/04/03 04:40:10;;;;;;;21.98;11.63;;;;;;;;;;5074777;28;20196;-74
2024/04/03 04:42:36;;;;;;;23.20;11.75;;;;;;;;;;5082913;28;20282;-75
2024/04/03 04:45:02;;;;;;;15.55;9.73;;;;;;;;;;5072304;28;20561;-74
2024/04/03 04:47:27;;;;;;;16.75;10.30;;;;;;;;;;5080005;28;20253;-74
2024/04/03 04:49:53;;;;;;;20.50;10.05;;;;;;;;;;5075398;28;20553;-75
2024/04/03 04:52:18;;;;;;;19.23;10.70;;;;;;;;;;5082290;28;20195;-75
2024/04/03 04:54:44;;;;;;;16.90;9.65;;;;;;;;;;5078782;28;20176;-75
2024/04/03 04:57:10;;;;;;;19.90;10.27;;;;;;;;;;5085465;28;20234;-75
2024/04/03 04:59:38;;;;;;;18.75;10.10;;;;;;;;;;5064749;28;20714;-75
2024/04/03 05:02:04;;;;;;;16.15;9.95;;;;;;;;;;5083876;28;20192;-75
2024/04/03 05:04:29;;;;;;;16.25;9.75;;;;;;;;;;5078171;28;20226;-74
2024/04/03 05:07:00;;;;;;;16.73;9.88;;;;;;;;;;5081782;28;20181;-75
2024/04/03 05:09:28;;;;;;;14.02;9.98;;;;;;;;;;5076323;28;20207;-74
2024/04/03 05:11:53;;;;;;;12.90;8.80;;;;;;;;;;5081397;28;20192;-74
2024/04/03 05:14:18;;;;;;;16.33;8.98;;;;;;;;;;5078983;28;20196;-75
2024/04/03 05:16:44;;;;;;;16.77;9.70;;;;;;;;;;5081520;28;20272;-74
2024/04/03 05:19:09;;;;;;;14.38;9.40;;;;;;;;;;5085169;28;20729;-75
2024/04/03 05:21:35;;;;;;;14.45;9.23;;;;;;;;;;5077055;28;20220;-75
2024/04/03 05:24:01;;;;;;;13.60;9.10;;;;;;;;;;5086047;28;20235;-75
2024/04/03 05:26:26;;;;;;;15.40;9.13;;;;;;;;;;5079395;28;20215;-75
2024/04/03 05:28:51;;;;;;;17.92;10.30;;;;;;;;;;5079781;28;20191;-76
2024/04/03 05:31:22;;;;;;;15.80;8.68;;;;;;;;;;5066995;28;20200;-75
2024/04/03 05:33:49;;;;;;;16.23;9.88;;;;;;;;;;5089983;28;20273;-74
2024/04/03 05:36:14;;;;;;;17.50;10.93;;;;;;;;;;5074867;28;20180;-74
2024/04/03 05:38:41;;;;;;;14.35;9.57;;;;;;;;;;5077533;28;20224;-74
2024/04/03 05:41:08;;;;;;;21.50;11.57;;;;;;;;;;5066297;28;20229;-76
2024/04/03 05:43:34;;;;;;;18.23;10.15;;;;;;;;;;5079368;28;20344;-76
2024/04/03 05:46:00;;;;;;;15.93;9.48;;;;;;;;;;5080567;28;20287;-75
2024/04/03 05:48:27;;;;;;;16.52;9.30;;;;;;;;;;5082135;28;20263;-75
2024/04/03 05:51:06;;;;;;;16.80;9.27;;;;;;;;;;5072173;28;20618;-75
2024/04/03 05:53:33;;;;;;;14.27;8.93;;;;;;;;;;5075626;28;20290;-75
2024/04/03 05:56:00;;;;;;;17.65;9.23;;;;;;;;;;5087338;28;20180;-74
2024/04/03 05:58:27;;;;;;;19.48;9.38;;;;;;;;;;5082946;28;20184;-75
2024/04/03 06:00:57;;;;;;;17.70;9.40;;;;;;;;;;5070252;28;20205;-74
2024/04/03 06:03:23;;;;;;;16.38;8.77;;;;;;;;;;5081624;28;20189;-74
2024/04/03 06:05:54;;;;;;;15.52;8.95;;;;;;;;;;5081818;28;20241;-75
2024/04/03 06:08:22;;;;;;;16.88;8.98;;;;;;;;;;5080081;28;20202;-75
2024/04/03 06:10:49;;;;;;;15.73;9.57;;;;;;;;;;5080423;28;20187;-75
2024/04/03 06:13:14;;;;;;;14.68;8.95;;;;;;;;;;5051951;28;20193;-75
2024/04/03 06:15:40;;;;;;;17.55;9.50;;;;;;;;;;5074416;28;20184;-74
2024/04/03 06:18:05;;;;;;;15.77;8.45;;;;;;;;;;5075386;28;20180;-75
2024/04/03 06:20:30;;;;;;;12.48;8.30;;;;;;;;;;5068809;28;20294;-75
2024/04/03 06:22:56;;;;;;;18.30;8.68;;;;;;;;;;5079408;28;20618;-75
2024/04/03 06:25:22;;;;;;;14.25;8.07;;;;;;;;;;5084191;28;20290;-75
2024/04/03 06:27:48;;;;;;;16.33;9.18;;;;;;;;;;5084866;28;20188;-75
2024/04/03 06:30:13;;;;;;;18.38;7.68;;;;;;;;;;5090466;28;20184;-75
2024/04/03 06:32:39;;;;;;;15.20;8.00;;;;;;;;;;5077319;28;20192;-75
2024/04/03 06:35:05;;;;;;;14.88;7.90;;;;;;;;;;5082141;28;20189;-75
2024/04/03 06:37:31;;;;;;;15.70;8.27;;;;;;;;;;5090177;28;20279;-75
2024/04/03 06:39:58;;;;;;;13.10;7.55;;;;;;;;;;5078838;28;20280;-75
2024/04/03 06:42:24;;;;;;;12.05;7.30;;;;;;;;;;5071633;28;20184;-75
2024/04/03 06:44:52;;;;;;;13.45;7.22;;;;;;;;;;5087079;28;20616;-74
2024/04/03 06:47:18;;;;;;;15.38;7.53;;;;;;;;;;5087880;28;20180;-75
2024/04/03 06:49:43;;;;;;;11.95;6.55;;;;;;;;;;5082966;28;20316;-75
2024/04/03 06:52:09;;;;;;;12.07;6.75;;;;;;;;;;5084417;28;20184;-75
2024/04/03 06:54:35;;;;;;;18.88;7.13;;;;;;;;;;5089500;28;20192;-75
2024/04/03 06:57:02;;;;;;;17.42;7.45;;;;;;;;;;5090005;28;20206;-76
2024/04/03 06:59:27;;;;;;;14.10;6.50;;;;;;;;;;5069903;28;20229;-75
2024/04/03 07:01:53;;;;;;;12.15;6.68;;;;;;;;;;5091234;28;20667;-77
2024/04/03 07:04:18;;;;;;;18.75;6.57;;;;;;;;;;5088365;28;20200;-75
2024/04/03 07:06:44;;;;;;;11.35;5.80;;;;;;;;;;5060296;28;20338;-76
2024/04/03 07:09:09;;;;;;;9.30;5.82;;;;;;;;;;5082753;28;20223;-76
2024/04/03 07:11:35;;;;;;;10.02;5.55;;;;;;;;;;5081451;28;20192;-75
2024/04/03 07:14:00;;;;;;;13.80;6.18;;;;;;;;;;5082546;28;20334;-75
2024/04/03 07:16:26;;;;;;;15.05;5.30;;;;;;;;;;5082939;28;20339;-75
2024/04/03 07:18:55;;;;;;;12.80;6.22;;;;;;;;;;5077233;28;20227;-75
2024/04/03 07:21:21;;;;;;;17.05;7.22;;;;;;;;;;5080663;28;20299;-75
2024/04/03 07:23:46;;;;;;;14.98;7.05;;;;;;;;;;5054363;28;20303;-76
2024/04/03 07:26:12;;;;;;;12.25;6.72;;;;;;;;;;5083053;28;20691;-76
2024/04/03 07:28:37;;;;;;;10.98;6.63;;;;;;;;;;5085637;28;20271;-75
2024/04/03 07:31:02;;;;;;;16.70;7.55;;;;;;;;;;5087944;28;20661;-74
2024/04/03 07:33:28;;;;;;;17.83;7.50;;;;;;;;;;5085124;28;20631;-75
2024/04/03 07:35:53;;;;;;;14.40;8.05;;;;;;;;;;5086103;28;20224;-75
2024/04/03 07:38:20;;;;;;;18.55;7.35;;;;;;;;;;5086961;28;20220;-75
2024/04/03 07:40:48;;;;;;;14.25;8.35;;;;;;;;;;5088764;28;20245;-76
2024/04/03 07:43:14;;;;;;;12.27;7.88;;;;;;;;;;5078479;28;20210;-75
2024/04/03 07:45:39;;;;;;;14.27;8.43;;;;;;;;;;5084608;28;20208;-76
2024/04/03 07:48:08;;;;;;;16.40;8.13;;;;;;;;;;5066604;28;20271;-75
2024/04/03 07:50:33;;;;;;;15.38;8.07;;;;;;;;;;5079794;28;20314;-77
2024/04/03 07:52:59;;;;;;;18.05;9.23;;;;;;;;;;5087659;28;20263;-75
2024/04/03 07:55:24;;;;;;;21.83;9.23;;;;;;;;;;5079248;28;20696;-76
2024/04/03 07:57:50;;;;;;;14.05;8.60;;;;;;;;;;5071403;28;20256;-76
2024/04/03 08:00:15;;;;;;;15.88;8.27;;;;;;;;;;5088788;28;20172;-74
2024/04/03 08:02:43;;;;;;;19.77;8.98;;;;;;;;;;5078493;28;20263;-74
2024/04/03 08:05:11;;;;;;;19.30;8.60;;;;;;;;;;5085072;28;20628;-74
2024/04/03 08:07:37;;;;;;;13.25;7.90;;;;;;;;;;5072185;28;20215;-74
2024/04/03 08:10:04;;;;;;;14.65;8.02;;;;;;;;;;5089301;28;20215;-74
2024/04/03 08:12:30;;;;;;;14.18;7.45;;;;;;;;;;5080594;28;20188;-74
2024/04/03 08:14:58;;;;;;;12.65;7.07;;;;;;;;;;5088991;28;20682;-74
2024/04/03 08:17:23;;;;;;;11.40;6.95;;;;;;;;;;5082161;28;20192;-75
2024/04/03 08:19:53;;;;;;;12.93;6.38;;;;;;;;;;5080885;28;20207;-75
2024/04/03 08:22:19;;;;;;;13.68;6.88;;;;;;;;;;5085969;28;20192;-75
2024/04/03 08:24:46;;;;;;;13.35;6.75;;;;;;;;;;5089212;28;20260;-75
2024/04/03 08:27:11;;;;;;;8.55;5.75;;;;;;;;;;5087532;28;20219;-75
2024/04/03 08:29:39;;;;;;;17.65;7.03;;;;;;;;;;5084565;28;20655;-75
2024/04/03 08:32:06;;;;;;;14.25;6.57;;;;;;;;;;5086798;28;20195;-74
2024/04/03 08:34:31;;;;;;;17.73;7.00;;;;;;;;;;5060553;28;20275;-75
2024/04/03 08:36:57;;;;;;;11.00;5.85;;;;;;;;;;5088051;28;20313;-75
2024/04/03 08:39:22;;;;;;;13.40;6.30;;;;;;;;;;5090891;28;20223;-75
2024/04/03 08:41:53;;;;;;;14.52;6.45;;;;;;;;;;5086537;28;20195;-74
2024/04/03 08:44:20;;;;;;;12.52;5.78;;;;;;;;;;5065495;28;20208;-74
2024/04/03 08:46:48;;;;;;;16.80;6.28;;;;;;;;;;5094678;27;20291;-74
2024/04/03 08:49:18;;;;;;;16.50;6.13;;;;;;;;;;5074760;28;20216;-73
2024/04/03 08:51:59;;;;;;;15.25;5.80;;;;;;;;;;5081437;28;20664;-73
2024/04/03 08:54:27;;;;;;;14.02;6.05;;;;;;;;;;5086528;28;20187;-73
2024/04/03 08:56:53;;;;;;;15.32;5.63;;;;;;;;;;5081331;28;20189;-74
2024/04/03 08:59:20;;;;;;;10.07;5.68;;;;;;;;;;5070335;28;20195;-75
2024/04/03 09:01:47;;;;;;;17.15;5.78;;;;;;;;;;5069832;28;20209;-74
2024/04/03 09:04:13;;;;;;;15.43;6.15;;;;;;;;;;5062784;28;20215;-74
2024/04/03 09:06:39;;;;;;;15.18;5.68;;;;;;;;;;4383280;28;10000832;-74
2024/04/03 09:09:04;;;;;;;11.90;5.63;;;;;;;;;;5076215;28;20201;-74
2024/04/03 09:11:30;;;;;;;11.68;5.25;;;;;;;;;;5080105;28;20603;-73
2024/04/03 09:13:56;;;;;;;13.80;5.55;;;;;;;;;;5077214;28;20196;-74
2024/04/03 09:16:22;;;;;;;10.60;5.38;;;;;;;;;;5084046;28;20184;-73
2024/04/03 09:18:49;;;;;;;12.52;5.57;;;;;;;;;;5076604;28;20207;-74
2024/04/03 09:21:18;;;;;;;9.75;4.72;;;;;;;;;;5076245;28;20197;-74
2024/04/03 09:23:46;;;;;;;10.43;4.95;;;;;;;;;;5082388;28;20353;-74
2024/04/03 09:26:12;;;;;;;10.23;5.18;;;;;;;;;;5055683;28;20659;-73
2024/04/03 09:28:37;;;;;;;9.35;4.97;;;;;;;;;;5069225;28;20192;-73
2024/04/03 09:31:03;;;;;;;10.50;4.70;;;;;;;;;;5071003;28;20241;-73
2024/04/03 09:33:31;;;;;;;8.82;4.38;;;;;;;;;;5066366;28;20192;-73
2024/04/03 09:35:56;;;;;;;9.48;4.47;;;;;;;;;;5075259;28;20188;-73
2024/04/03 09:38:21;;;;;;;9.98;4.57;;;;;;;;;;5073057;28;20764;-73
2024/04/03 09:40:48;;;;;;;9.90;3.88;;;;;;;;;;5071793;28;20188;-73
2024/04/03 09:43:19;;;;;;;12.15;4.97;;;;;;;;;;5073176;28;20258;-73
2024/04/03 09:45:51;;;;;;;8.23;3.90;;;;;;;;;;5072358;28;20216;-73
2024/04/03 09:48:25;;;;;;;12.85;3.90;;;;;;;;;;5084417;28;20277;-72
2024/04/03 09:50:50;;;;;;;11.00;4.05;;;;;;;;;;5079542;28;20188;-71
2024/04/03 09:53:19;;;;;;;11.57;3.83;;;;;;;;;;5087109;28;20260;-72
2024/04/03 09:55:46;;;;;;;8.68;3.50;;;;;;;;;;5085346;28;20212;-72
2024/04/03 09:58:18;;;;;;;10.95;3.63;;;;;;;;;;5086165;28;20191;-72
2024/04/03 10:01:00;;;;;;;10.45;3.45;;;;;;;;;;5079979;28;20203;-72
2024/04/03 10:03:30;;;;;;;8.20;3.65;;;;;;;;;;5077330;28;20230;-72
2024/04/03 10:06:03;;;;;;;6.95;2.97;;;;;;;;;;5078619;28;20737;-72
2024/04/03 10:08:34;;;;;;;9.85;3.97;;;;;;;;;;5074725;28;20185;-73
2024/04/03 10:11:04;;;;;;;6.97;3.20;;;;;;;;;;5083701;28;20199;-71
2024/04/03 10:13:32;;;;;;;8.15;2.85;;;;;;;;;;5075649;28;20184;-71
2024/04/03 10:16:02;;;;;;;5.28;2.88;;;;;;;;;;5066236;28;20294;-72
2024/04/03 10:18:28;;;;;;;7.53;2.92;;;;;;;;;;5088252;28;20299;-72
2024/04/03 10:20:55;;;;;;;8.70;2.85;;;;;;;;;;5081222;28;20587;-72
2024/04/03 10:23:21;;;;;;;7.60;2.70;;;;;;;;;;5081513;28;20184;-72
2024/04/03 10:25:47;;;;;;;7.63;2.60;;;;;;;;;;5065105;28;20227;-71
2024/04/03 10:28:13;;;;;;;5.38;2.30;;;;;;;;;;5076218;28;20180;-71
2024/04/03 10:30:38;;;;;;;6.90;2.60;;;;;;;;;;5073400;28;20195;-71
2024/04/03 10:33:08;;;;;;;6.53;2.38;;;;;;;;;;5081317;28;20228;-72
2024/04/03 10:35:34;;;;;;;6.03;2.15;;;;;;;;;;5087001;28;20641;-72
2024/04/03 10:38:01;;;;;;;7.97;2.45;;;;;;;;;;5075521;28;20259;-71
2024/04/03 10:40:26;;;;;;;5.97;2.03;;;;;;;;;;5074667;28;20184;-72
2024/04/03 10:42:52;;;;;;;6.65;2.30;;;;;;;;;;5074452;28;20558;-72
2024/04/03 10:45:18;;;;;;;7.25;2.42;;;;;;;;;;5083625;28;20559;-72
2024/04/03 10:47:46;;;;;;;6.35;2.00;;;;;;;;;;5084397;28;20208;-72
2024/04/03 10:50:12;;;;;;;5.22;2.20;;;;;;;;;;5086645;28;20413;-72
2024/04/03 10:52:37;;;;;;;6.13;2.53;;;;;;;;;;5085421;28;20233;-72
2024/04/03 10:55:03;;;;;;;5.57;2.13;;;;;;;;;;5079909;28;20180;-71
2024/04/03 10:57:28;;;;;;;6.18;1.88;;;;;;;;;;5071657;28;20610;-71
2024/04/03 10:59:57;;;;;;;4.63;1.90;;;;;;;;;;5077236;28;20207;-70
2024/04/03 11:02:23;;;;;;;5.32;2.00;;;;;;;;;;5077648;28;20521;-70
2024/04/03 11:04:49;;;;;;;6.90;2.30;;;;;;;;;;5084095;28;20201;-71
2024/04/03 11:07:14;;;;;;;4.95;1.90;;;;;;;;;;5067455;28;20532;-71
2024/04/03 11:09:40;;;;;;;3.75;1.85;;;;;;;;;;5069414;28;20233;-71
2024/04/03 11:12:10;;;;;;;3.47;1.98;;;;;;;;;;5090669;28;20666;-70
2024/04/03 11:14:36;;;;;;;6.90;1.65;;;;;;;;;;5091754;28;20188;-71
2024/04/03 11:17:07;;;;;;;5.10;2.10;;;;;;;;;;5087264;28;20322;-70
2024/04/03 11:19:33;;;;;;;5.68;2.20;;;;;;;;;;5083465;28;20361;-70
2024/04/03 11:21:58;;;;;;;4.43;1.83;;;;;;;;;;5072870;28;20552;-70
2024/04/03 11:24:24;;;;;;;8.00;2.10;;;;;;;;;;5079020;28;20201;-72
2024/04/03 11:26:49;;;;;;;6.85;2.30;;;;;;;;;;5071814;28;20188;-70
2024/04/03 11:29:32;;;;;;;5.50;2.28;;;;;;;;;;5083470;28;20181;-71
2024/04/03 11:31:58;;;;;;;3.45;1.90;;;;;;;;;;5084422;28;20642;-72
2024/04/03 11:34:27;;;;;;;4.28;2.28;;;;;;;;;;5079422;28;20180;-70
2024/04/03 11:36:56;;;;;;;3.58;1.65;;;;;;;;;;5084753;28;20670;-70
2024/04/03 11:39:22;;;;;;;2.50;1.90;;;;;;;;;;5078225;28;20235;-70
2024/04/03 11:41:48;;;;;;;2.83;1.70;;;;;;;;;;5087032;28;20188;-71
2024/04/03 11:44:14;;;;;;;5.82;2.10;;;;;;;;;;5082729;28;20706;-71
2024/04/03 11:46:43;;;;;;;5.95;2.22;;;;;;;;;;5076343;28;20295;-72
2024/04/03 11:49:08;;;;;;;4.13;2.05;;;;;;;;;;5071362;28;20189;-71
2024/04/03 11:51:34;;;;;;;2.97;1.73;;;;;;;;;;5069722;28;20188;-71
2024/04/03 11:53:59;;;;;;;3.65;2.10;;;;;;;;;;5071646;28;20260;-71
2024/04/03 11:56:26;;;;;;;10.45;1.92;;;;;;;;;;5073010;28;20196;-72
2024/04/03 11:58:52;;;;;;;4.65;1.90;;;;;;;;;;5070575;28;20188;-71
2024/04/03 12:01:18;;;;;;;2.42;1.30;;;;;;;;;;5069948;28;20207;-71
2024/04/03 12:03:43;;;;;;;1.77;1.30;;;;;;;;;;5080868;28;20525;-72
2024/04/03 12:06:12;;;;;;;5.00;2.10;;;;;;;;;;5071985;28;20185;-70
2024/04/03 12:08:38;;;;;;;2.63;1.40;;;;;;;;;;5086513;28;20184;-70
2024/04/03 12:11:04;;;;;;;3.75;2.08;;;;;;;;;;5088058;28;20187;-70
2024/04/03 12:13:31;;;;;;;3.58;1.83;;;;;;;;;;5088448;28;20194;-71
2024/04/03 12:15:58;;;;;;;3.63;1.80;;;;;;;;;;5083689;28;20516;-71
2024/04/03 12:18:37;;;;;;;4.53;1.83;;;;;;;;;;5070276;28;20512;-71
2024/04/03 12:21:07;;;;;;;2.70;1.80;;;;;;;;;;5086830;28;20175;-71
2024/04/03 12:23:32;;;;;;;4.55;1.90;;;;;;;;;;5086760;28;20187;-70
2024/04/03 12:25:58;;;;;;;3.28;1.90;;;;;;;;;;5081547;28;20200;-70
2024/04/03 12:28:23;;;;;;;2.08;1.70;;;;;;;;;;5071335;28;20604;-70
2024/04/03 12:30:49;;;;;;;4.60;2.05;;;;;;;;;;5078529;28;20220;-69
2024/04/03 12:33:14;;;;;;;3.47;1.70;;;;;;;;;;5076002;28;20279;-72
2024/04/03 12:35:39;;;;;;;4.20;1.88;;;;;;;;;;5076509;28;20191;-70
2024/04/03 12:38:05;;;;;;;7.45;1.80;;;;;;;;;;5073722;28;20467;-71
2024/04/03 12:40:30;;;;;;;3.75;1.80;;;;;;;;;;5078963;28;20635;-70
2024/04/03 12:42:56;;;;;;;5.45;1.80;;;;;;;;;;5087345;28;20249;-71
2024/04/03 12:45:21;;;;;;;2.53;1.73;;;;;;;;;;5088700;28;20841;-70
2024/04/03 12:47:47;;;;;;;5.70;1.98;;;;;;;;;;5081993;28;20185;-70
2024/04/03 12:50:12;;;;;;;2.85;1.38;;;;;;;;;;5078193;28;20196;-70
2024/04/03 12:52:38;;;;;;;3.15;1.60;;;;;;;;;;5074280;28;20231;-70
2024/04/03 12:55:04;;;;;;;3.88;1.50;;;;;;;;;;5082840;28;20177;-70
2024/04/03 12:57:29;;;;;;;4.78;1.67;;;;;;;;;;5069242;28;20201;-70
2024/04/03 12:59:55;;;;;;;5.28;2.00;;;;;;;;;;5082369;28;20566;-71
2024/04/03 13:02:20;;;;;;;3.50;1.63;;;;;;;;;;5083336;28;20188;-71
2024/04/03 13:04:46;;;;;;;4.82;2.00;;;;;;;;;;5078720;28;20223;-70
2024/04/03 13:07:12;;;;;;;3.17;1.38;;;;;;;;;;5073575;28;20212;-70
2024/04/03 13:09:38;;;;;;;3.55;2.08;;;;;;;;;;5082039;28;20253;-70
2024/04/03 13:12:05;;;;;;;5.20;1.80;;;;;;;;;;5084053;28;20197;-70
2024/04/03 13:14:31;;;;;;;2.78;1.67;;;;;;;;;;5087401;28;20210;-70
2024/04/03 13:16:57;;;;;;;4.30;1.85;;;;;;;;;;5084778;28;20215;-69
2024/04/03 13:19:22;;;;;;;4.93;2.22;;;;;;;;;;5076019;28;20235;-70
2024/04/03 13:21:47;;;;;;;4.00;2.20;;;;;;;;;;5086443;28;20187;-71
2024/04/03 13:24:13;;;;;;;3.78;2.05;;;;;;;;;;5085881;28;20217;-70
2024/04/03 13:26:38;;;;;;;4.03;2.20;;;;;;;;;;5078144;28;20528;-69
2024/04/03 13:29:04;;;;;;;5.43;2.10;;;;;;;;;;5078274;28;20260;-70
2024/04/03 13:31:29;;;;;;;7.93;2.40;;;;;;;;;;5072675;28;20184;-69
2024/04/03 13:33:55;;;;;;;3.80;1.90;;;;;;;;;;5080750;28;20249;-71
2024/04/03 13:36:21;;;;;;;4.15;2.03;;;;;;;;;;5084272;28;20192;-69
2024/04/03 13:38:49;;;;;;;4.78;2.10;;;;;;;;;;5072279;28;20256;-69
2024/04/03 13:41:15;;;;;;;4.35;2.15;;;;;;;;;;5075895;28;20614;-69
2024/04/03 13:43:41;;;;;;;3.60;2.10;;;;;;;;;;5085287;28;20219;-70
2024/04/03 13:46:06;;;;;;;2.47;1.90;;;;;;;;;;5086864;28;20269;-70
2024/04/03 13:48:32;;;;;;;2.17;1.80;;;;;;;;;;5071135;28;20205;-69
2024/04/03 13:50:59;;;;;;;2.00;1.80;;;;;;;;;;5082288;28;20192;-69
2024/04/03 13:53:24;;;;;;;1.98;1.83;;;;;;;;;;5086444;28;20507;-70
2024/04/03 13:55:59;;;;;;;3.05;2.17;;;;;;;;;;5084788;28;20218;-70
2024/04/03 13:58:25;;;;;;;3.50;2.20;;;;;;;;;;5083862;28;20188;-70
2024/04/03 14:00:52;;;;;;;2.72;2.20;;;;;;;;;;5083999;28;20192;-70
2024/04/03 14:03:18;;;;;;;2.38;1.58;;;;;;;;;;5066822;28;20280;-70
2024/04/03 14:05:46;;;;;;;2.92;2.05;;;;;;;;;;5074086;28;20303;-69
2024/04/03 14:08:12;;;;;;;2.38;1.95;;;;;;;;;;5081085;28;20624;-70
2024/04/03 14:10:38;;;;;;;2.83;1.65;;;;;;;;;;5062813;28;20279;-69
2024/04/03 14:13:04;;;;;;;2.95;1.50;;;;;;;;;;5074074;28;20199;-69
2024/04/03 14:15:29;;;;;;;2.28;1.55;;;;;;;;;;5077014;28;20185;-70
2024/04/03 14:17:57;;;;;;;4.95;2.15;;;;;;;;;;5080272;28;20192;-70
2024/04/03 14:20:22;;;;;;;3.47;1.42;;;;;;;;;;5077800;28;20200;-70
2024/04/03 14:22:48;;;;;;;2.58;1.67;;;;;;;;;;5077675;28;20684;-70
2024/04/03 14:25:13;;;;;;;1.60;1.50;;;;;;;;;;5081843;28;20208;-69
2024/04/03 14:27:39;;;;;;;3.15;1.50;;;;;;;;;;5071760;28;20195;-70
2024/04/03 14:30:05;;;;;;;3.10;1.60;;;;;;;;;;5068728;28;20181;-70
2024/04/03 14:32:31;;;;;;;3.28;1.30;;;;;;;;;;5080353;28;20314;-71